sensor_id;sensor_type;location;lat;lon;timestamp;pressure;altitude;pressure_sealevel;temperature;humidity
78986;BME280;68384;55.750;48.746;2023-09-12T00:02:19;99449.22;;;9.21;77.20
78986;BME280;68384;55.750;48.746;2023-09-12T00:04:46;99452.59;;;9.19;77.39
78986;BME280;68384;55.750;48.746;2023-09-12T00:07:13;99452.53;;;9.17;77.38
78986;BME280;68384;55.750;48.746;2023-09-12T00:09:40;99452.41;;;9.13;77.73
78986;BME280;68384;55.750;48.746;2023-09-12T00:12:07;99450.72;;;9.13;77.60
78986;BME280;68384;55.750;48.746;2023-09-12T00:14:35;99448.88;;;9.10;77.69
78986;BME280;68384;55.750;48.746;2023-09-12T00:17:02;99453.19;;;9.11;77.42
78986;BME280;68384;55.750;48.746;2023-09-12T00:19:30;99458.47;;;9.13;77.52
78986;BME280;68384;55.750;48.746;2023-09-12T00:21:57;99455.75;;;9.10;77.51
78986;BME280;68384;55.750;48.746;2023-09-12T00:24:24;99450.50;;;9.08;77.70
78986;BME280;68384;55.750;48.746;2023-09-12T00:26:52;99457.34;;;9.06;77.48
78986;BME280;68384;55.750;48.746;2023-09-12T00:29:19;99454.75;;;9.06;77.82
78986;BME280;68384;55.750;48.746;2023-09-12T00:31:46;99457.31;;;9.05;77.71
78986;BME280;68384;55.750;48.746;2023-09-12T00:34:17;99457.25;;;9.03;77.80
78986;BME280;68384;55.750;48.746;2023-09-12T00:36:44;99456.44;;;9.04;78.10
78986;BME280;68384;55.750;48.746;2023-09-12T00:39:12;99454.75;;;9.06;77.98
78986;BME280;68384;55.750;48.746;2023-09-12T00:41:39;99456.44;;;9.04;78.38
78986;BME280;68384;55.750;48.746;2023-09-12T00:44:06;99466.69;;;9.03;78.43
78986;BME280;68384;55.750;48.746;2023-09-12T00:46:34;99461.53;;;9.03;78.70
78986;BME280;68384;55.750;48.746;2023-09-12T00:49:03;99459.72;;;9.00;78.83
78986;BME280;68384;55.750;48.746;2023-09-12T00:51:32;99456.25;;;9.00;78.99
78986;BME280;68384;55.750;48.746;2023-09-12T00:54:01;99464.88;;;8.99;78.92
78986;BME280;68384;55.750;48.746;2023-09-12T00:56:28;99458.00;;;8.99;79.01
78986;BME280;68384;55.750;48.746;2023-09-12T00:58:56;99467.44;;;8.99;79.44
78986;BME280;68384;55.750;48.746;2023-09-12T01:01:24;99462.22;;;8.97;79.25
78986;BME280;68384;55.750;48.746;2023-09-12T01:03:52;99461.41;;;8.98;79.33
78986;BME280;68384;55.750;48.746;2023-09-12T01:06:21;99463.97;;;8.98;79.56
78986;BME280;68384;55.750;48.746;2023-09-12T01:08:49;99458.91;;;9.01;79.58
78986;BME280;68384;55.750;48.746;2023-09-12T01:11:17;99458.91;;;9.01;79.36
78986;BME280;68384;55.750;48.746;2023-09-12T01:13:44;99465.75;;;8.99;79.75
78986;BME280;68384;55.750;48.746;2023-09-12T01:16:11;99464.97;;;9.02;79.79
78986;BME280;68384;55.750;48.746;2023-09-12T01:18:39;99464.91;;;9.00;80.06
78986;BME280;68384;55.750;48.746;2023-09-12T01:21:46;99470.91;;;8.99;79.76
78986;BME280;68384;55.750;48.746;2023-09-12T01:24:28;99474.22;;;8.95;79.69
78986;BME280;68384;55.750;48.746;2023-09-12T01:29:56;99470.75;;;8.95;79.40
78986;BME280;68384;55.750;48.746;2023-09-12T01:32:24;99477.69;;;8.96;80.19
78986;BME280;68384;55.750;48.746;2023-09-12T01:34:52;99475.81;;;8.92;80.25
78986;BME280;68384;55.750;48.746;2023-09-12T01:37:19;99480.03;;;8.88;80.36
78986;BME280;68384;55.750;48.746;2023-09-12T01:39:47;99474.75;;;8.85;80.52
78986;BME280;68384;55.750;48.746;2023-09-12T01:42:20;99481.53;;;8.82;80.34
78986;BME280;68384;55.750;48.746;2023-09-12T01:44:50;99479.69;;;8.78;80.64
78986;BME280;68384;55.750;48.746;2023-09-12T01:47:20;99488.22;;;8.75;80.59
78986;BME280;68384;55.750;48.746;2023-09-12T01:49:52;99480.28;;;8.71;80.99
78986;BME280;68384;55.750;48.746;2023-09-12T01:52:21;99481.06;;;8.68;80.69
78986;BME280;68384;55.750;48.746;2023-09-12T01:54:50;99487.81;;;8.65;80.99
78986;BME280;68384;55.750;48.746;2023-09-12T01:57:18;99487.81;;;8.65;80.84
78986;BME280;68384;55.750;48.746;2023-09-12T01:59:49;99491.25;;;8.64;80.86
78986;BME280;68384;55.750;48.746;2023-09-12T02:02:16;99484.31;;;8.63;80.76
78986;BME280;68384;55.750;48.746;2023-09-12T02:04:51;99480.84;;;8.62;80.58
78986;BME280;68384;55.750;48.746;2023-09-12T02:07:23;99486.84;;;8.61;80.50
78986;BME280;68384;55.750;48.746;2023-09-12T02:09:51;99486.84;;;8.61;80.39
78986;BME280;68384;55.750;48.746;2023-09-12T02:12:18;99491.97;;;8.60;80.77
78986;BME280;68384;55.750;48.746;2023-09-12T02:14:45;99495.38;;;8.59;80.51
78986;BME280;68384;55.750;48.746;2023-09-12T02:17:13;99497.91;;;8.57;80.69
78986;BME280;68384;55.750;48.746;2023-09-12T02:19:41;99504.66;;;8.53;80.48
78986;BME280;68384;55.750;48.746;2023-09-12T02:22:08;99502.84;;;8.51;80.69
78986;BME280;68384;55.750;48.746;2023-09-12T02:24:35;99509.81;;;8.53;80.68
78986;BME280;68384;55.750;48.746;2023-09-12T02:27:03;99510.72;;;8.54;80.66
78986;BME280;68384;55.750;48.746;2023-09-12T02:29:30;99506.38;;;8.53;80.57
78986;BME280;68384;55.750;48.746;2023-09-12T02:31:59;99514.13;;;8.53;80.81
78986;BME280;68384;55.750;48.746;2023-09-12T02:34:27;99513.19;;;8.51;80.50
78986;BME280;68384;55.750;48.746;2023-09-12T02:36:54;99512.38;;;8.52;80.38
78986;BME280;68384;55.750;48.746;2023-09-12T02:39:21;99507.31;;;8.55;80.15
78986;BME280;68384;55.750;48.746;2023-09-12T02:41:48;99514.25;;;8.56;80.27
78986;BME280;68384;55.750;48.746;2023-09-12T02:44:16;99514.31;;;8.59;80.45
78986;BME280;68384;55.750;48.746;2023-09-12T02:46:43;99518.78;;;8.63;80.21
78986;BME280;68384;55.750;48.746;2023-09-12T02:49:11;99509.47;;;8.68;80.22
78986;BME280;68384;55.750;48.746;2023-09-12T02:51:39;99511.38;;;8.72;79.87
78986;BME280;68384;55.750;48.746;2023-09-12T02:54:06;99510.69;;;8.78;79.77
78986;BME280;68384;55.750;48.746;2023-09-12T02:56:34;99515.13;;;8.82;79.75
78986;BME280;68384;55.750;48.746;2023-09-12T02:59:01;99516.22;;;8.88;79.72
78986;BME280;68384;55.750;48.746;2023-09-12T03:01:28;99512.00;;;8.92;79.77
78986;BME280;68384;55.750;48.746;2023-09-12T03:03:57;99520.03;;;8.99;79.71
78986;BME280;68384;55.750;48.746;2023-09-12T03:06:25;99525.47;;;9.07;79.41
78986;BME280;68384;55.750;48.746;2023-09-12T03:08:52;99520.44;;;9.11;79.55
78986;BME280;68384;55.750;48.746;2023-09-12T03:11:20;99527.72;;;9.22;79.30
78986;BME280;68384;55.750;48.746;2023-09-12T03:13:47;99533.03;;;9.26;79.05
78986;BME280;68384;55.750;48.746;2023-09-12T03:16:15;99538.41;;;9.32;78.77
78986;BME280;68384;55.750;48.746;2023-09-12T03:18:42;99535.13;;;9.38;78.52
78986;BME280;68384;55.750;48.746;2023-09-12T03:21:10;99530.09;;;9.42;78.16
78986;BME280;68384;55.750;48.746;2023-09-12T03:23:38;99526.72;;;9.45;78.00
78986;BME280;68384;55.750;48.746;2023-09-12T03:26:05;99539.78;;;9.49;77.54
78986;BME280;68384;55.750;48.746;2023-09-12T03:28:34;99532.09;;;9.51;77.49
78986;BME280;68384;55.750;48.746;2023-09-12T03:31:12;99545.13;;;9.54;77.13
78986;BME280;68384;55.750;48.746;2023-09-12T03:33:43;99543.66;;;9.62;76.89
78986;BME280;68384;55.750;48.746;2023-09-12T03:36:16;99553.25;;;9.66;76.57
78986;BME280;68384;55.750;48.746;2023-09-12T03:38:44;99545.66;;;9.70;76.77
78986;BME280;68384;55.750;48.746;2023-09-12T03:41:12;99551.88;;;9.77;76.50
78986;BME280;68384;55.750;48.746;2023-09-12T03:43:39;99551.06;;;9.78;76.22
78986;BME280;68384;55.750;48.746;2023-09-12T03:46:06;99558.06;;;9.82;75.84
78986;BME280;68384;55.750;48.746;2023-09-12T03:48:34;99559.16;;;9.89;76.07
78986;BME280;68384;55.750;48.746;2023-09-12T03:51:04;99554.88;;;9.91;75.87
78986;BME280;68384;55.750;48.746;2023-09-12T03:53:31;99555.91;;;9.96;75.66
78986;BME280;68384;55.750;48.746;2023-09-12T03:55:58;99561.06;;;9.96;75.29
78986;BME280;68384;55.750;48.746;2023-09-12T03:58:28;99556.97;;;10.02;74.98
78986;BME280;68384;55.750;48.746;2023-09-12T04:00:55;99559.66;;;10.05;74.93
78986;BME280;68384;55.750;48.746;2023-09-12T04:03:23;99559.06;;;10.15;74.54
78986;BME280;68384;55.750;48.746;2023-09-12T04:05:50;99567.13;;;10.24;74.45
78986;BME280;68384;55.750;48.746;2023-09-12T04:08:18;99559.53;;;10.30;73.80
78986;BME280;68384;55.750;48.746;2023-09-12T04:10:46;99571.91;;;10.41;73.70
78986;BME280;68384;55.750;48.746;2023-09-12T04:13:19;99563.47;;;10.48;73.31
78986;BME280;68384;55.750;48.746;2023-09-12T04:16:13;99581.00;;;10.56;72.93
78986;BME280;68384;55.750;48.746;2023-09-12T04:18:41;99577.75;;;10.63;72.91
78986;BME280;68384;55.750;48.746;2023-09-12T04:21:09;99570.22;;;10.71;72.80
78986;BME280;68384;55.750;48.746;2023-09-12T04:23:36;99575.59;;;10.78;72.73
78986;BME280;68384;55.750;48.746;2023-09-12T04:26:03;99579.34;;;10.89;71.99
78986;BME280;68384;55.750;48.746;2023-09-12T04:28:31;99570.03;;;10.96;71.50
78986;BME280;68384;55.750;48.746;2023-09-12T04:31:02;99582.41;;;11.08;71.28
78986;BME280;68384;55.750;48.746;2023-09-12T04:33:31;99574.00;;;11.16;71.60
78986;BME280;68384;55.750;48.746;2023-09-12T04:36:00;99573.34;;;11.23;70.53
78986;BME280;68384;55.750;48.746;2023-09-12T04:38:28;99575.31;;;11.33;70.34
78986;BME280;68384;55.750;48.746;2023-09-12T04:40:56;99571.09;;;11.38;70.55
78986;BME280;68384;55.750;48.746;2023-09-12T04:43:25;99579.06;;;11.46;70.70
78986;BME280;68384;55.750;48.746;2023-09-12T04:45:52;99580.09;;;11.53;69.81
78986;BME280;68384;55.750;48.746;2023-09-12T04:48:20;99588.94;;;11.61;69.30
78986;BME280;68384;55.750;48.746;2023-09-12T04:50:47;99589.09;;;11.67;69.11
78986;BME280;68384;55.750;48.746;2023-09-12T04:53:15;99596.91;;;11.68;69.66
78986;BME280;68384;55.750;48.746;2023-09-12T04:55:42;99597.94;;;11.75;69.92
78986;BME280;68384;55.750;48.746;2023-09-12T04:58:10;99602.34;;;11.77;69.59
78986;BME280;68384;55.750;48.746;2023-09-12T05:00:39;99604.19;;;11.83;69.02
78986;BME280;68384;55.750;48.746;2023-09-12T05:03:07;99605.09;;;11.83;69.39
78986;BME280;68384;55.750;48.746;2023-09-12T05:05:35;99600.88;;;11.90;68.84
78986;BME280;68384;55.750;48.746;2023-09-12T05:08:05;99604.44;;;11.92;68.79
78986;BME280;68384;55.750;48.746;2023-09-12T05:10:33;99601.91;;;11.95;68.22
78986;BME280;68384;55.750;48.746;2023-09-12T05:13:00;99602.75;;;11.95;68.02
78986;BME280;68384;55.750;48.746;2023-09-12T05:15:27;99611.59;;;12.03;68.12
78986;BME280;68384;55.750;48.746;2023-09-12T05:17:55;99608.28;;;12.07;68.04
78986;BME280;68384;55.750;48.746;2023-09-12T05:20:23;99609.25;;;12.13;68.05
78986;BME280;68384;55.750;48.746;2023-09-12T05:22:50;99607.59;;;12.16;67.86
78986;BME280;68384;55.750;48.746;2023-09-12T05:25:18;99601.66;;;12.22;67.42
78986;BME280;68384;55.750;48.746;2023-09-12T05:27:46;99607.75;;;12.22;67.02
78986;BME280;68384;55.750;48.746;2023-09-12T05:30:13;99612.88;;;12.19;67.31
78986;BME280;68384;55.750;48.746;2023-09-12T05:32:41;99607.66;;;12.19;67.74
78986;BME280;68384;55.750;48.746;2023-09-12T05:35:09;99613.78;;;12.21;68.04
78986;BME280;68384;55.750;48.746;2023-09-12T05:37:50;99607.75;;;12.24;67.81
78986;BME280;68384;55.750;48.746;2023-09-12T05:40:18;99596.59;;;12.28;67.84
78986;BME280;68384;55.750;48.746;2023-09-12T05:42:46;99597.44;;;12.28;67.69
78986;BME280;68384;55.750;48.746;2023-09-12T05:45:13;99601.97;;;12.37;67.49
78986;BME280;68384;55.750;48.746;2023-09-12T05:47:41;99599.31;;;12.34;67.94
78986;BME280;68384;55.750;48.746;2023-09-12T05:50:09;99590.63;;;12.33;67.51
78986;BME280;68384;55.750;48.746;2023-09-12T05:52:36;99591.56;;;12.37;67.27
78986;BME280;68384;55.750;48.746;2023-09-12T05:55:05;99596.00;;;12.41;67.24
78986;BME280;68384;55.750;48.746;2023-09-12T05:57:32;99593.44;;;12.42;66.44
78986;BME280;68384;55.750;48.746;2023-09-12T06:00:02;99595.31;;;12.49;66.43
78986;BME280;68384;55.750;48.746;2023-09-12T06:02:38;99594.59;;;12.56;66.79
78986;BME280;68384;55.750;48.746;2023-09-12T06:05:07;99604.31;;;12.66;67.00
78986;BME280;68384;55.750;48.746;2023-09-12T06:07:34;99595.75;;;12.72;67.17
78986;BME280;68384;55.750;48.746;2023-09-12T06:10:02;99601.84;;;12.73;67.84
78986;BME280;68384;55.750;48.746;2023-09-12T06:12:31;99592.41;;;12.78;67.36
78986;BME280;68384;55.750;48.746;2023-09-12T06:15:00;99599.50;;;12.41;67.95
78986;BME280;68384;55.750;48.746;2023-09-12T06:17:34;99598.03;;;12.55;67.73
78986;BME280;68384;55.750;48.746;2023-09-12T06:20:02;99601.50;;;12.56;67.89
78986;BME280;68384;55.750;48.746;2023-09-12T06:22:35;99608.59;;;12.63;68.07
78986;BME280;68384;55.750;48.746;2023-09-12T06:25:03;99605.06;;;12.61;68.21
78986;BME280;68384;55.750;48.746;2023-09-12T06:27:33;99613.69;;;12.58;68.20
78986;BME280;68384;55.750;48.746;2023-09-12T06:30:01;99616.44;;;12.66;67.69
78986;BME280;68384;55.750;48.746;2023-09-12T06:32:34;99623.56;;;12.75;67.79
78986;BME280;68384;55.750;48.746;2023-09-12T06:35:08;99619.56;;;12.90;67.24
78986;BME280;68384;55.750;48.746;2023-09-12T06:38:03;99614.31;;;12.89;67.46
78986;BME280;68384;55.750;48.746;2023-09-12T06:40:36;99612.59;;;12.89;67.20
78986;BME280;68384;55.750;48.746;2023-09-12T06:43:31;99620.56;;;12.98;67.45
78986;BME280;68384;55.750;48.746;2023-09-12T06:45:58;99608.47;;;13.02;67.49
78986;BME280;68384;55.750;48.746;2023-09-12T06:48:26;99618.03;;;13.01;67.30
78986;BME280;68384;55.750;48.746;2023-09-12T06:50:54;99618.66;;;12.90;67.41
78986;BME280;68384;55.750;48.746;2023-09-12T06:53:21;99619.63;;;12.95;67.75
78986;BME280;68384;55.750;48.746;2023-09-12T06:55:49;99616.16;;;12.94;67.60
78986;BME280;68384;55.750;48.746;2023-09-12T06:58:16;99616.25;;;12.99;67.70
78986;BME280;68384;55.750;48.746;2023-09-12T07:00:44;99618.94;;;13.03;67.45
78986;BME280;68384;55.750;48.746;2023-09-12T07:03:11;99619.94;;;13.11;67.45
78986;BME280;68384;55.750;48.746;2023-09-12T07:05:43;99626.94;;;13.14;67.07
78986;BME280;68384;55.750;48.746;2023-09-12T07:08:10;99624.28;;;13.11;67.00
78986;BME280;68384;55.750;48.746;2023-09-12T07:10:45;99621.59;;;13.06;67.50
78986;BME280;68384;55.750;48.746;2023-09-12T07:13:14;99598.75;;;12.90;66.88
78986;BME280;68384;55.750;48.746;2023-09-12T07:15:41;99617.28;;;13.07;67.20
78986;BME280;68384;55.750;48.746;2023-09-12T07:18:09;99619.91;;;13.10;67.31
78986;BME280;68384;55.750;48.746;2023-09-12T07:20:37;99631.56;;;13.29;66.68
78986;BME280;68384;55.750;48.746;2023-09-12T07:23:04;99631.84;;;13.42;66.36
78986;BME280;68384;55.750;48.746;2023-09-12T07:25:39;99636.50;;;13.61;65.27
78986;BME280;68384;55.750;48.746;2023-09-12T07:28:10;99643.72;;;13.77;65.39
78986;BME280;68384;55.750;48.746;2023-09-12T07:30:37;99641.28;;;13.88;65.03
78986;BME280;68384;55.750;48.746;2023-09-12T07:33:05;99641.44;;;13.97;64.58
78986;BME280;68384;55.750;48.746;2023-09-12T07:35:33;99639.81;;;14.05;64.49
78986;BME280;68384;55.750;48.746;2023-09-12T07:38:00;99633.72;;;14.06;64.25
78986;BME280;68384;55.750;48.746;2023-09-12T07:40:28;99627.56;;;14.01;64.77
78986;BME280;68384;55.750;48.746;2023-09-12T07:42:56;99629.84;;;13.80;65.18
78986;BME280;68384;55.750;48.746;2023-09-12T07:45:23;99619.06;;;13.57;66.32
78986;BME280;68384;55.750;48.746;2023-09-12T07:47:50;99621.81;;;13.66;66.27
78986;BME280;68384;55.750;48.746;2023-09-12T07:50:18;99629.53;;;13.60;66.23
78986;BME280;68384;55.750;48.746;2023-09-12T07:52:45;99620.03;;;13.64;67.35
78986;BME280;68384;55.750;48.746;2023-09-12T07:55:13;99631.56;;;13.79;65.90
78986;BME280;68384;55.750;48.746;2023-09-12T07:57:40;99632.75;;;13.98;65.74
78986;BME280;68384;55.750;48.746;2023-09-12T08:00:08;99647.63;;;14.07;65.24
78986;BME280;68384;55.750;48.746;2023-09-12T08:02:39;99643.28;;;14.06;64.97
78986;BME280;68384;55.750;48.746;2023-09-12T08:05:07;99651.09;;;14.04;65.51
78986;BME280;68384;55.750;48.746;2023-09-12T08:07:36;99642.56;;;14.16;65.81
78986;BME280;68384;55.750;48.746;2023-09-12T08:10:04;99644.44;;;14.26;65.34
78986;BME280;68384;55.750;48.746;2023-09-12T08:12:32;99644.63;;;14.39;65.88
78986;BME280;68384;55.750;48.746;2023-09-12T08:14:59;99638.50;;;14.36;65.43
78986;BME280;68384;55.750;48.746;2023-09-12T08:17:31;99656.09;;;14.46;64.60
78986;BME280;68384;55.750;48.746;2023-09-12T08:19:59;99651.59;;;14.39;64.61
78986;BME280;68384;55.750;48.746;2023-09-12T08:22:29;99646.53;;;14.48;64.02
78986;BME280;68384;55.750;48.746;2023-09-12T08:24:56;99647.56;;;14.61;63.63
78986;BME280;68384;55.750;48.746;2023-09-12T08:27:24;99643.22;;;14.61;63.63
78986;BME280;68384;55.750;48.746;2023-09-12T08:29:58;99639.88;;;14.70;63.70
78986;BME280;68384;55.750;48.746;2023-09-12T08:32:52;99633.00;;;14.78;64.54
78986;BME280;68384;55.750;48.746;2023-09-12T08:35:19;99646.09;;;14.82;63.52
78986;BME280;68384;55.750;48.746;2023-09-12T08:37:47;99632.16;;;14.80;63.39
78986;BME280;68384;55.750;48.746;2023-09-12T08:40:15;99628.88;;;14.96;63.30
78986;BME280;68384;55.750;48.746;2023-09-12T08:42:45;99640.38;;;15.15;63.07
78986;BME280;68384;55.750;48.746;2023-09-12T08:45:13;99649.25;;;15.28;62.89
78986;BME280;68384;55.750;48.746;2023-09-12T08:47:42;99651.94;;;15.38;61.57
78986;BME280;68384;55.750;48.746;2023-09-12T08:50:13;99644.38;;;15.61;61.56
78986;BME280;68384;55.750;48.746;2023-09-12T08:52:42;99643.59;;;15.76;60.93
78986;BME280;68384;55.750;48.746;2023-09-12T08:55:26;99638.47;;;15.85;59.72
78986;BME280;68384;55.750;48.746;2023-09-12T08:57:54;99638.47;;;15.86;58.65
78986;BME280;68384;55.750;48.746;2023-09-12T09:00:23;99641.16;;;15.95;59.03
78986;BME280;68384;55.750;48.746;2023-09-12T09:02:51;99647.22;;;15.90;58.30
78986;BME280;68384;55.750;48.746;2023-09-12T09:05:21;99643.81;;;16.01;57.98
78986;BME280;68384;55.750;48.746;2023-09-12T09:07:52;99633.44;;;16.15;58.00
78986;BME280;68384;55.750;48.746;2023-09-12T09:10:22;99643.84;;;16.04;57.67
78986;BME280;68384;55.750;48.746;2023-09-12T09:13:08;99642.97;;;16.05;58.00
78986;BME280;68384;55.750;48.746;2023-09-12T09:15:37;99630.78;;;16.04;57.64
78986;BME280;68384;55.750;48.746;2023-09-12T09:18:09;99647.44;;;16.20;57.20
78986;BME280;68384;55.750;48.746;2023-09-12T09:20:40;99638.50;;;15.92;58.97
78986;BME280;68384;55.750;48.746;2023-09-12T09:23:13;99621.28;;;16.25;57.24
78986;BME280;68384;55.750;48.746;2023-09-12T09:25:42;99637.94;;;16.39;57.47
78986;BME280;68384;55.750;48.746;2023-09-12T09:28:18;99623.97;;;16.34;57.25
78986;BME280;68384;55.750;48.746;2023-09-12T09:30:50;99621.44;;;16.50;57.30
78986;BME280;68384;55.750;48.746;2023-09-12T09:33:19;99631.19;;;16.77;57.08
78986;BME280;68384;55.750;48.746;2023-09-12T09:35:48;99633.03;;;16.99;54.82
78986;BME280;68384;55.750;48.746;2023-09-12T09:38:19;99624.34;;;17.24;53.88
78986;BME280;68384;55.750;48.746;2023-09-12T09:40:48;99632.25;;;17.38;52.82
78986;BME280;68384;55.750;48.746;2023-09-12T09:43:20;99632.28;;;17.52;51.80
78986;BME280;68384;55.750;48.746;2023-09-12T09:45:48;99624.41;;;17.50;51.70
78986;BME280;68384;55.750;48.746;2023-09-12T09:48:23;99615.69;;;17.53;51.19
78986;BME280;68384;55.750;48.746;2023-09-12T09:50:52;99633.16;;;17.54;50.25
78986;BME280;68384;55.750;48.746;2023-09-12T09:53:26;99630.53;;;17.67;50.17
78986;BME280;68384;55.750;48.746;2023-09-12T09:56:20;99627.94;;;17.81;50.15
78986;BME280;68384;55.750;48.746;2023-09-12T09:58:52;99623.56;;;17.87;48.63
78986;BME280;68384;55.750;48.746;2023-09-12T10:01:27;99622.69;;;17.93;49.44
78986;BME280;68384;55.750;48.746;2023-09-12T10:04:00;99620.03;;;17.88;49.85
78986;BME280;68384;55.750;48.746;2023-09-12T10:06:31;99620.06;;;17.81;49.20
78986;BME280;68384;55.750;48.746;2023-09-12T10:09:01;99623.53;;;17.83;48.55
78986;BME280;68384;55.750;48.746;2023-09-12T10:11:34;99624.44;;;17.82;48.29
78986;BME280;68384;55.750;48.746;2023-09-12T10:14:03;99629.66;;;17.91;48.24
78986;BME280;68384;55.750;48.746;2023-09-12T10:16:36;99624.44;;;17.92;48.62
78986;BME280;68384;55.750;48.746;2023-09-12T10:19:19;99624.41;;;18.03;48.49
78986;BME280;68384;55.750;48.746;2023-09-12T10:24:24;99624.41;;;18.09;48.54
78986;BME280;68384;55.750;48.746;2023-09-12T10:26:52;99624.41;;;18.12;49.20
78986;BME280;68384;55.750;48.746;2023-09-12T10:29:19;99622.63;;;18.22;48.19
78986;BME280;68384;55.750;48.746;2023-09-12T10:31:49;99630.47;;;18.29;47.99
78986;BME280;68384;55.750;48.746;2023-09-12T10:34:18;99629.59;;;18.35;48.07
78986;BME280;68384;55.750;48.746;2023-09-12T10:36:47;99627.00;;;18.38;48.41
78986;BME280;68384;55.750;48.746;2023-09-12T10:39:16;99626.06;;;18.59;46.97
78986;BME280;68384;55.750;48.746;2023-09-12T10:41:46;99618.97;;;18.82;45.63
78986;BME280;68384;55.750;48.746;2023-09-12T10:44:17;99616.19;;;19.14;44.83
78986;BME280;68384;55.750;48.746;2023-09-12T10:46:46;99623.00;;;19.45;44.12
78986;BME280;68384;55.750;48.746;2023-09-12T10:49:14;99620.09;;;19.80;41.80
78986;BME280;68384;55.750;48.746;2023-09-12T10:51:45;99626.91;;;20.05;41.16
78986;BME280;68384;55.750;48.746;2023-09-12T10:54:15;99627.78;;;20.05;40.75
78986;BME280;68384;55.750;48.746;2023-09-12T10:56:42;99630.22;;;20.28;40.10
78986;BME280;68384;55.750;48.746;2023-09-12T10:59:13;99635.19;;;20.55;40.10
78986;BME280;68384;55.750;48.746;2023-09-12T11:01:43;99626.06;;;20.87;38.65
78986;BME280;68384;55.750;48.746;2023-09-12T11:06:54;99623.72;;;21.28;36.39
78986;BME280;68384;55.750;48.746;2023-09-12T11:09:24;99635.06;;;21.34;36.67
78986;BME280;68384;55.750;48.746;2023-09-12T11:12:03;99636.72;;;21.41;36.45
78986;BME280;68384;55.750;48.746;2023-09-12T11:14:32;99637.34;;;21.57;36.09
78986;BME280;68384;55.750;48.746;2023-09-12T11:19:44;99640.22;;;21.40;36.30
78986;BME280;68384;55.750;48.746;2023-09-12T11:22:23;99637.28;;;21.01;37.63
78986;BME280;68384;55.750;48.746;2023-09-12T11:25:02;99631.31;;;20.88;38.02
78986;BME280;68384;55.750;48.746;2023-09-12T11:27:46;99633.00;;;20.94;37.91
78986;BME280;68384;55.750;48.746;2023-09-12T11:30:31;99627.53;;;21.09;37.22
78986;BME280;68384;55.750;48.746;2023-09-12T11:32:58;99630.00;;;21.21;36.91
78986;BME280;68384;55.750;48.746;2023-09-12T11:35:28;99628.78;;;21.43;37.08
78986;BME280;68384;55.750;48.746;2023-09-12T11:37:59;99622.34;;;21.61;36.52
78986;BME280;68384;55.750;48.746;2023-09-12T11:43:01;99618.59;;;21.78;36.25
78986;BME280;68384;55.750;48.746;2023-09-12T11:45:29;99606.47;;;21.67;36.73
78986;BME280;68384;55.750;48.746;2023-09-12T11:47:57;99621.69;;;21.48;36.94
78986;BME280;68384;55.750;48.746;2023-09-12T11:53:04;99616.50;;;20.76;38.25
78986;BME280;68384;55.750;48.746;2023-09-12T11:55:35;99617.75;;;20.44;39.04
78986;BME280;68384;55.750;48.746;2023-09-12T11:58:03;99614.47;;;20.23;39.60
78986;BME280;68384;55.750;48.746;2023-09-12T12:00:32;99618.97;;;20.12;39.50
78986;BME280;68384;55.750;48.746;2023-09-12T12:03:00;99619.00;;;20.06;40.48
78986;BME280;68384;55.750;48.746;2023-09-12T12:05:27;99625.09;;;20.14;39.96
78986;BME280;68384;55.750;48.746;2023-09-12T12:07:55;99626.09;;;19.97;40.34
78986;BME280;68384;55.750;48.746;2023-09-12T12:10:44;99620.84;;;19.98;40.92
78986;BME280;68384;55.750;48.746;2023-09-12T12:13:20;99621.69;;;19.99;40.71
78986;BME280;68384;55.750;48.746;2023-09-12T12:15:48;99623.31;;;20.15;40.49
78986;BME280;68384;55.750;48.746;2023-09-12T12:18:16;99619.59;;;20.34;39.95
78986;BME280;68384;55.750;48.746;2023-09-12T12:20:44;99621.94;;;20.61;40.30
78986;BME280;68384;55.750;48.746;2023-09-12T12:23:12;99610.25;;;20.87;39.07
78986;BME280;68384;55.750;48.746;2023-09-12T12:25:40;99621.47;;;21.01;38.92
78986;BME280;68384;55.750;48.746;2023-09-12T12:28:07;99622.25;;;21.10;39.33
78986;BME280;68384;55.750;48.746;2023-09-12T12:30:35;99620.38;;;21.18;38.91
78986;BME280;68384;55.750;48.746;2023-09-12T12:33:08;99623.72;;;21.28;38.28
78986;BME280;68384;55.750;48.746;2023-09-12T12:36:05;99621.81;;;21.39;38.38
78986;BME280;68384;55.750;48.746;2023-09-12T12:38:37;99620.84;;;21.44;38.41
78986;BME280;68384;55.750;48.746;2023-09-12T12:41:23;99619.88;;;21.50;38.54
78986;BME280;68384;55.750;48.746;2023-09-12T12:43:51;99621.47;;;21.63;38.10
78986;BME280;68384;55.750;48.746;2023-09-12T12:46:20;99622.28;;;21.67;37.83
78986;BME280;68384;55.750;48.746;2023-09-12T12:48:48;99622.47;;;21.53;38.56
78986;BME280;68384;55.750;48.746;2023-09-12T12:51:25;99617.63;;;21.26;38.95
78986;BME280;68384;55.750;48.746;2023-09-12T12:53:54;99622.47;;;20.94;39.79
78986;BME280;68384;55.750;48.746;2023-09-12T12:56:31;99625.41;;;20.66;40.33
78986;BME280;68384;55.750;48.746;2023-09-12T12:58:59;99618.59;;;20.46;41.19
78986;BME280;68384;55.750;48.746;2023-09-12T13:01:30;99611.94;;;20.14;41.69
78986;BME280;68384;55.750;48.746;2023-09-12T13:03:58;99620.00;;;19.95;42.06
78986;BME280;68384;55.750;48.746;2023-09-12T13:06:26;99623.63;;;19.82;42.18
78986;BME280;68384;55.750;48.746;2023-09-12T13:08:55;99617.56;;;19.71;43.19
78986;BME280;68384;55.750;48.746;2023-09-12T13:11:24;99619.41;;;19.58;43.03
78986;BME280;68384;55.750;48.746;2023-09-12T13:13:51;99623.00;;;19.48;43.71
78986;BME280;68384;55.750;48.746;2023-09-12T13:16:19;99626.59;;;19.38;44.18
78986;BME280;68384;55.750;48.746;2023-09-12T13:18:46;99622.25;;;19.28;44.09
78986;BME280;68384;55.750;48.746;2023-09-12T13:21:14;99630.16;;;19.20;44.80
78986;BME280;68384;55.750;48.746;2023-09-12T13:23:41;99631.09;;;19.13;44.84